Бабкино

Карта отелей и гостиниц, располагающихся рядом с аэропортом Бабкино :

Бабкино
Волгоград
Волгоградская область 48° 27' 36.36" N, 44° 32' 60" E
Бабкино
Волгоград
Волгоградская область 48° 27' 36.36" N, 44° 32' 60" E
Код аэродрома ИКАО
ZE9Z
Код аэродрома RU
ЗЕ9З
Координаты
N48.46010° E044.55000°
Превышение над уровнем моря
12
Основная полоса
36/18
Курс магнитный
002,2/182,2
Длина основной ВПП
480
Ширина основной ВПП
15
Покрытие основной ВПП
Нетвёрдое (грунт)
Освещение ВПП
Нет
Тип: 
Аэродром
Класс аэродрома: 
Принадлежность: 
АОН
Статус: 
Действующий
Сайт: 
E-mail аэродрома: 
Vbabkin_65@mail.ru
Страна: 
Россия
Регион: 
Волгоградская область
Город: 
Волгоград
Дополнительная информация: 
Владелец ПП: физ. лицо АОН. Принимает ВС массой до 10 тонн.

Найти трансфер

С помощью этой формы Вы можете найти трансфер из аэропорта Бабкино в город, аэропорт или вокзал:

Карта места

Javascript is required to view this map.

Погода в аэропортах:

Авиационная погода в Игнатьево

Регион: 
Погода METAR: 
UHBB 051100Z 28002MPS 220V300 9999 -TSRA BKN033CB 20/20 Q0995 R36/290350 NOSIG RMK QFE729/0972
Время наблюдения
2021-08-05T11:00:00Z
Температура C
20.0
Точка росы
20.0
Направление ветра
280
Скорость ветра (узлы)
4
Метео видимость
6.21
Явления погоды
-TSRA
Условия полета
VFR
Аэропорт подробнее: 

Авиационная погода в Хомутово

Регион: 
Погода METAR: 
UHSS 051100Z 35004MPS 9000 -SHRA BKN008 BKN012CB 18/18 Q1006 R01/70D NOSIG RMK MT OBSC QFE754/1005
Время наблюдения
2021-08-05T11:00:00Z
Температура C
18.0
Точка росы
18.0
Направление ветра
350
Скорость ветра (узлы)
8
Метео видимость
5.59
Явления погоды
-SHRA
Условия полета
IFR
Аэропорт подробнее: 

Авиационная погода в Нижневартовске

Регион: 
Погода METAR: 
USNN 051100Z 36002MPS 320V030 3600 FU BKN026 20/16 Q1010 R03/0///65 NOSIG RMK QFE753
Время наблюдения
2021-08-05T11:00:00Z
Температура C
20.0
Точка росы
16.0
Направление ветра
360
Скорость ветра (узлы)
4
Метео видимость
2.24
Явления погоды
FU
Условия полета
IFR
Аэропорт подробнее: 

Авиационная погода в Оренбурге

Регион: 
Погода METAR: 
UWOO 051100Z 22005MPS 200V260 9999 TS SCT040CB 32/14 Q1009 R26/CLRD65 NOSIG RMK QFE746/0995
Время наблюдения
2021-08-05T11:00:00Z
Температура C
32.0
Точка росы
14.0
Направление ветра
220
Скорость ветра (узлы)
10
Метео видимость
6.21
Явления погоды
TS
Условия полета
VFR
Аэропорт подробнее: